Slatersville, Rhode Island
Current Conditions -  °F | °C
As of 1:35 AM on Saturday 25 Oct 2014 (Local Time) from KSFZ Reporting Station
Clear Clear  
Wind Chill: 42°   Ceiling: Unl
Heat Index: 45°   Visibility: 10mi
Dew Point: 34°   Wind: 5mph
Humidity: 66%   Direction: 310°NW
Pressure: 29.75"   Gusts: NA
Location:  42°N, 71.58°W
Report Text: KSFZ 250535Z 31004KT 10SM CLR 07/01 A2975 RMK AO1
Loading
Personal Weather Stations






























Interactive Weather Map
Tropical Storm Tracking
New forecast layout! Learn more

10-Day Weather Forecast

Advertisements
Track Severe Weather on mobile